Terminal Aerodrome Forecast
Issued by NWS Detroit/Pontiac, MI

Home | Current Version | Previous Version | Text Only | Print | Product List | Glossary On
Versions: 1 2 3 4 5 6 7 8 9 10 11 12 13 14 15 16 17 18 19 20 21 22 23 24 25 26 27
386
FTUS43 KDTX 280643 AAA
TAFDTW
TAF AMD
KDTW 280643Z 2807/0112 15006KT 5SM BR SCT060 BKN200
     FM280900 14005KT 3SM BR FEW005 BKN100
     FM281200 13010KT 2SM -SHRA BR SCT005 OVC015
     FM281500 15010KT 3SM -DZ BR OVC015
     FM281800 17010KT P6SM BKN015 OVC025
     FM010000 18012KT 5SM SHRA BR OVC008
     FM010600 20014G20KT 3SM SHRA BR OVC004=

USA.gov is the U.S. government's official web portal to all federal, state and local government web resources and services.